createdAt,value
2022-12-20T00:01:35.248Z,60.09
2022-12-20T00:04:38.250Z,60.00
2022-12-20T00:07:41.059Z,60.11
2022-12-20T00:10:46.210Z,60.31
2022-12-20T00:13:49.094Z,60.40
2022-12-20T00:16:51.912Z,60.23
2022-12-20T00:19:54.860Z,60.16
2022-12-20T00:22:57.850Z,60.28
2022-12-20T00:26:03.015Z,60.00
2022-12-20T00:29:06.962Z,60.12
2022-12-20T00:32:09.898Z,60.35
2022-12-20T00:35:13.303Z,60.18
2022-12-20T00:38:16.195Z,60.38
2022-12-20T00:41:21.680Z,60.38
2022-12-20T00:44:24.583Z,60.60
2022-12-20T00:47:27.475Z,60.50
2022-12-20T00:50:30.338Z,60.43
2022-12-20T00:53:34.071Z,60.87
2022-12-20T00:56:36.929Z,60.79
2022-12-20T00:59:39.855Z,60.65
2022-12-20T01:02:42.776Z,60.49
2022-12-20T01:05:56.396Z,60.30
2022-12-20T01:08:59.601Z,60.05
2022-12-20T01:12:02.439Z,60.20
2022-12-20T01:15:06.175Z,60.48
2022-12-20T01:18:08.985Z,60.80
2022-12-20T01:21:15.570Z,61.30
2022-12-20T01:24:20.335Z,61.19
2022-12-20T01:27:23.469Z,61.21
2022-12-20T01:30:26.453Z,61.25
2022-12-20T01:33:29.310Z,61.15
2022-12-20T01:36:34.661Z,61.27
2022-12-20T01:39:37.597Z,61.24
2022-12-20T01:42:40.390Z,61.31
2022-12-20T01:45:43.346Z,61.43
2022-12-20T01:48:53.782Z,61.58
2022-12-20T01:52:02.828Z,61.62
2022-12-20T01:55:13.112Z,61.27
2022-12-20T01:58:20.068Z,61.20
2022-12-20T02:01:25.386Z,61.20
2022-12-20T02:04:28.397Z,61.39
2022-12-20T02:07:33.778Z,61.50
2022-12-20T02:10:59.574Z,61.61
2022-12-20T02:14:24.396Z,61.31
2022-12-20T02:17:42.499Z,61.09
2022-12-20T02:21:00.614Z,60.80
2022-12-20T02:24:31.637Z,60.86
2022-12-20T02:27:44.027Z,61.08
2022-12-20T02:30:49.285Z,61.10
2022-12-20T02:33:53.685Z,60.65
2022-12-20T02:36:56.909Z,60.47
2022-12-20T02:40:00.196Z,60.73
2022-12-20T02:43:27.203Z,60.48
2022-12-20T02:46:33.908Z,59.90
2022-12-20T02:49:41.392Z,59.61
2022-12-20T02:52:44.875Z,59.77
2022-12-20T02:56:17.059Z,59.62
2022-12-20T02:59:36.888Z,59.77
2022-12-20T03:03:04.468Z,59.98
2022-12-20T03:06:07.607Z,60.11
2022-12-20T03:09:10.444Z,59.90
2022-12-20T03:12:16.188Z,60.01
2022-12-20T03:15:19.173Z,59.74
2022-12-20T03:18:22.021Z,59.54
2022-12-20T03:21:24.828Z,59.06
2022-12-20T03:24:27.637Z,58.82
2022-12-20T03:27:30.461Z,58.67
2022-12-20T03:30:33.623Z,58.65
2022-12-20T03:33:36.434Z,58.96
2022-12-20T03:36:39.289Z,59.12
2022-12-20T03:39:42.150Z,59.36
2022-12-20T03:42:44.910Z,59.59
2022-12-20T03:45:47.942Z,59.19
2022-12-20T03:48:50.716Z,59.26
2022-12-20T03:51:53.670Z,58.98
2022-12-20T03:54:57.068Z,58.96
2022-12-20T03:57:59.994Z,59.19
2022-12-20T04:01:02.863Z,59.46
2022-12-20T04:04:06.135Z,59.48
2022-12-20T04:07:09.636Z,59.65
2022-12-20T04:10:12.538Z,59.67
2022-12-20T04:13:15.394Z,59.64
2022-12-20T04:16:22.403Z,59.75
2022-12-20T04:19:25.338Z,59.69
2022-12-20T04:22:28.180Z,59.69
2022-12-20T04:25:31.050Z,59.69
2022-12-20T04:28:35.270Z,59.61
2022-12-20T04:31:38.361Z,59.73
2022-12-20T04:34:41.195Z,59.65
2022-12-20T04:37:44.077Z,59.80
2022-12-20T04:40:50.155Z,60.11
2022-12-20T04:43:57.562Z,60.31
2022-12-20T04:47:00.553Z,60.33
2022-12-20T04:50:04.003Z,60.13
2022-12-20T04:53:25.593Z,60.08
2022-12-20T04:56:29.527Z,60.20
2022-12-20T04:59:32.460Z,60.29
2022-12-20T05:02:35.403Z,60.08
2022-12-20T05:05:38.526Z,60.08
2022-12-20T05:08:41.762Z,60.25
2022-12-20T05:11:44.695Z,60.30
2022-12-20T05:14:47.496Z,59.92
2022-12-20T05:17:50.310Z,60.00
2022-12-20T05:21:15.839Z,60.49
2022-12-20T05:24:37.250Z,60.79
2022-12-20T05:27:40.081Z,61.04
2022-12-20T05:30:42.986Z,61.42
2022-12-20T05:33:46.294Z,61.42
2022-12-20T05:36:49.187Z,61.26
2022-12-20T05:39:52.200Z,61.00
2022-12-20T05:42:55.324Z,61.05
2022-12-20T05:45:58.213Z,60.82
2022-12-20T05:49:01.066Z,60.73
2022-12-20T05:52:04.097Z,60.90
2022-12-20T05:55:07.209Z,61.11
2022-12-20T05:58:13.454Z,61.34
2022-12-20T06:01:16.334Z,61.38
2022-12-20T06:04:19.236Z,61.62
2022-12-20T06:07:22.158Z,61.79
2022-12-20T06:10:24.984Z,61.96
2022-12-20T06:13:27.806Z,62.16
2022-12-20T06:16:34.016Z,62.34
2022-12-20T06:19:37.194Z,62.34
2022-12-20T06:22:40.650Z,62.19
2022-12-20T06:25:44.004Z,61.96
2022-12-20T06:28:47.071Z,61.89
2022-12-20T06:31:50.048Z,61.77
2022-12-20T06:34:52.874Z,61.62
2022-12-20T06:37:56.397Z,61.58
2022-12-20T06:40:59.243Z,61.46
2022-12-20T06:44:02.227Z,61.44
2022-12-20T06:47:05.247Z,61.40
2022-12-20T06:50:08.557Z,61.34
2022-12-20T06:53:11.456Z,61.04
2022-12-20T06:56:14.389Z,60.53
2022-12-20T06:59:17.291Z,60.44
2022-12-20T07:02:20.394Z,60.22
2022-12-20T07:05:23.607Z,60.00
2022-12-20T07:08:26.488Z,59.66
2022-12-20T07:11:29.403Z,59.60
2022-12-20T07:14:32.238Z,59.77
2022-12-20T07:17:35.040Z,59.44
2022-12-20T07:20:38.034Z,58.57
2022-12-20T07:23:40.793Z,57.98
2022-12-20T07:26:46.766Z,57.86
2022-12-20T07:29:49.720Z,57.97
2022-12-20T07:32:52.602Z,57.83
2022-12-20T07:36:07.337Z,57.36
2022-12-20T07:39:10.686Z,56.53
2022-12-20T07:42:13.898Z,56.15
2022-12-20T07:45:17.157Z,56.20
2022-12-20T07:48:21.765Z,55.80
2022-12-20T07:51:31.870Z,54.47
2022-12-20T07:54:40.338Z,54.22
2022-12-20T07:57:51.649Z,54.15
2022-12-20T08:00:55.696Z,54.02
2022-12-20T08:04:13.067Z,53.56
2022-12-20T08:07:15.896Z,52.92
2022-12-20T08:10:19.974Z,52.76
2022-12-20T08:13:23.220Z,52.55
2022-12-20T08:16:26.404Z,52.33
2022-12-20T08:19:32.543Z,52.62
2022-12-20T08:22:35.872Z,52.95
2022-12-20T08:25:41.803Z,52.78
2022-12-20T08:28:44.944Z,53.12
2022-12-20T08:31:50.703Z,52.97
2022-12-20T08:34:53.808Z,52.29
2022-12-20T08:37:56.988Z,52.09
2022-12-20T08:41:10.698Z,51.73
2022-12-20T08:44:13.855Z,51.85
2022-12-20T08:47:16.574Z,52.57
2022-12-20T08:50:19.644Z,52.82
2022-12-20T08:53:22.754Z,52.84
2022-12-20T08:56:25.631Z,52.35
2022-12-20T08:59:28.390Z,51.65
2022-12-20T09:02:32.038Z,51.45
2022-12-20T09:05:35.005Z,51.83
2022-12-20T09:08:39.550Z,50.65
2022-12-20T09:11:42.337Z,50.80
2022-12-20T09:14:45.236Z,50.82
2022-12-20T09:17:48.053Z,50.36
2022-12-20T09:20:50.740Z,50.01
2022-12-20T09:23:55.446Z,50.13
2022-12-20T09:26:58.192Z,50.08
2022-12-20T09:30:00.957Z,50.50
2022-12-20T09:33:09.750Z,50.73
2022-12-20T09:36:22.008Z,50.25
2022-12-20T09:39:24.727Z,50.74
2022-12-20T09:42:29.294Z,50.77
2022-12-20T09:45:36.870Z,50.34
2022-12-20T09:48:40.164Z,50.43
2022-12-20T09:52:01.701Z,51.19
2022-12-20T09:55:29.441Z,51.29
2022-12-20T09:58:45.680Z,51.46
2022-12-20T10:01:50.534Z,51.97
2022-12-20T10:04:55.471Z,51.69
2022-12-20T10:08:09.730Z,51.86
2022-12-20T10:11:50.498Z,52.06
2022-12-20T10:15:16.111Z,52.57
2022-12-20T10:18:35.495Z,52.89
2022-12-20T10:22:05.258Z,52.74
2022-12-20T10:25:24.708Z,52.71
2022-12-20T10:28:34.204Z,52.05
2022-12-20T10:31:37.141Z,51.11
2022-12-20T10:34:48.617Z,49.85
2022-12-20T10:38:08.473Z,50.13
2022-12-20T10:41:22.626Z,50.69
2022-12-20T10:44:28.554Z,51.43
2022-12-20T10:47:43.252Z,51.56
2022-12-20T10:51:16.951Z,51.13
2022-12-20T10:54:49.220Z,51.32
2022-12-20T10:57:52.043Z,50.92
2022-12-20T11:01:05.664Z,49.56
2022-12-20T11:04:32.895Z,49.59
2022-12-20T11:07:36.153Z,49.87
2022-12-20T11:10:39.041Z,49.67
2022-12-20T11:13:42.595Z,49.97
2022-12-20T11:16:47.534Z,49.99
2022-12-20T11:20:13.705Z,50.43
2022-12-20T11:23:35.524Z,50.81
2022-12-20T11:26:53.427Z,50.52
2022-12-20T11:30:25.516Z,50.32
2022-12-20T11:34:05.190Z,49.97
2022-12-20T11:37:24.457Z,50.37
2022-12-20T11:40:39.055Z,50.42
2022-12-20T11:44:23.330Z,50.54
2022-12-20T11:47:33.981Z,50.45
2022-12-20T11:50:48.586Z,50.60
2022-12-20T11:53:57.498Z,49.85
2022-12-20T11:57:05.584Z,48.84
2022-12-20T12:00:14.670Z,49.44
2022-12-20T12:03:28.567Z,49.21
2022-12-20T12:06:40.977Z,49.33
2022-12-20T12:10:00.459Z,49.53
2022-12-20T12:13:17.435Z,50.02
2022-12-20T12:16:27.630Z,50.19
2022-12-20T12:19:32.840Z,50.41
2022-12-20T12:22:37.901Z,50.51
2022-12-20T12:25:40.766Z,50.40
2022-12-20T12:28:45.285Z,50.52
2022-12-20T12:32:10.719Z,50.29
2022-12-20T12:35:45.923Z,49.97
2022-12-20T12:39:21.054Z,49.30
2022-12-20T12:42:30.562Z,49.10
2022-12-20T12:45:41.663Z,49.20
2022-12-20T12:48:52.251Z,49.77
2022-12-20T12:51:59.118Z,50.34
2022-12-20T12:55:02.042Z,50.44
2022-12-20T12:58:23.251Z,50.67
2022-12-20T13:01:48.167Z,50.77
2022-12-20T13:05:25.504Z,50.60
2022-12-20T13:08:49.247Z,50.89
2022-12-20T13:12:02.111Z,51.40
2022-12-20T13:15:32.820Z,51.34
2022-12-20T13:18:35.630Z,51.81
2022-12-20T13:21:39.483Z,52.09
2022-12-20T13:24:56.496Z,51.99
2022-12-20T13:28:24.212Z,51.97
2022-12-20T13:31:27.286Z,52.02
2022-12-20T13:34:58.879Z,52.32
2022-12-20T13:38:30.343Z,52.65
2022-12-20T13:41:37.915Z,53.04
2022-12-20T13:44:45.308Z,52.92
2022-12-20T13:47:57.393Z,53.23
2022-12-20T13:51:00.659Z,53.43
2022-12-20T13:54:07.110Z,54.02
2022-12-20T13:57:14.300Z,54.31
2022-12-20T14:00:26.080Z,54.40
2022-12-20T14:03:31.000Z,54.80
2022-12-20T14:06:34.915Z,55.08
2022-12-20T14:09:38.924Z,55.40
2022-12-20T14:12:46.360Z,55.47
2022-12-20T14:15:49.848Z,55.77
2022-12-20T14:19:07.102Z,55.98
2022-12-20T14:22:13.366Z,56.18
2022-12-20T14:25:22.668Z,56.21
2022-12-20T14:28:44.497Z,56.56
2022-12-20T14:31:49.523Z,56.78
2022-12-20T14:34:54.028Z,56.99
2022-12-20T14:38:00.192Z,56.92
2022-12-20T14:41:03.021Z,57.11
2022-12-20T14:44:21.923Z,57.11
2022-12-20T14:47:29.376Z,57.26
2022-12-20T14:50:38.273Z,57.43
2022-12-20T14:53:45.695Z,57.63
2022-12-20T14:56:51.888Z,57.84
2022-12-20T15:00:15.363Z,57.90
2022-12-20T15:03:19.632Z,57.87
2022-12-20T15:06:37.849Z,57.60
2022-12-20T15:09:40.627Z,57.36
2022-12-20T15:12:43.544Z,57.25
2022-12-20T15:15:47.194Z,57.23
2022-12-20T15:18:52.264Z,57.03
2022-12-20T15:21:55.053Z,57.18
2022-12-20T15:24:57.890Z,57.29
2022-12-20T15:28:00.632Z,57.25
2022-12-20T15:31:04.888Z,57.17
2022-12-20T15:34:18.729Z,57.20
2022-12-20T15:37:21.495Z,57.43
2022-12-20T15:40:24.270Z,57.71
2022-12-20T15:43:27.168Z,57.91
2022-12-20T15:46:30.078Z,58.04
2022-12-20T15:49:33.134Z,58.39
2022-12-20T15:52:35.967Z,58.59
2022-12-20T15:55:40.213Z,58.16
2022-12-20T15:58:43.188Z,57.67
2022-12-20T16:01:46.324Z,57.32
2022-12-20T16:04:50.669Z,57.24
2022-12-20T16:07:53.494Z,57.46
2022-12-20T16:10:56.949Z,57.58
2022-12-20T16:14:00.491Z,57.58
2022-12-20T16:17:03.380Z,57.96
2022-12-20T16:20:06.842Z,58.08
2022-12-20T16:23:18.063Z,58.27
2022-12-20T16:26:23.554Z,58.03
2022-12-20T16:29:26.367Z,58.13
2022-12-20T16:32:29.134Z,57.90
2022-12-20T16:35:34.352Z,57.70
2022-12-20T16:38:37.111Z,57.76
2022-12-20T16:41:42.224Z,57.88
2022-12-20T16:44:46.347Z,57.91
2022-12-20T16:47:50.277Z,57.91
2022-12-20T16:50:53.506Z,58.07
2022-12-20T16:57:21.934Z,57.84
2022-12-20T17:00:27.279Z,57.24
2022-12-20T17:03:30.260Z,57.34
2022-12-20T17:06:33.601Z,57.50
2022-12-20T17:09:36.364Z,58.31
2022-12-20T17:12:39.638Z,58.76
2022-12-20T17:15:43.903Z,58.86
2022-12-20T17:18:48.490Z,59.19
2022-12-20T17:25:26.670Z,60.21
2022-12-20T17:28:29.689Z,61.24
2022-12-20T17:31:39.179Z,61.59
2022-12-20T17:34:42.503Z,61.88
2022-12-20T17:37:46.557Z,66.12
2022-12-20T17:40:49.434Z,58.79
2022-12-20T17:43:53.228Z,54.62
2022-12-20T17:46:56.981Z,55.67
2022-12-20T17:50:00.736Z,56.85
2022-12-20T17:53:04.311Z,57.89
2022-12-20T17:56:12.476Z,58.36
2022-12-20T17:59:15.579Z,59.30
2022-12-20T18:02:24.326Z,60.48
2022-12-20T18:05:28.294Z,60.75
2022-12-20T18:08:31.069Z,61.29
2022-12-20T18:11:34.522Z,61.71
2022-12-20T18:14:37.436Z,62.96
2022-12-20T18:17:41.107Z,63.22
2022-12-20T18:20:43.855Z,64.45
2022-12-20T18:23:48.112Z,56.05
2022-12-20T18:26:50.924Z,54.36
2022-12-20T18:29:54.487Z,56.14
2022-12-20T18:32:57.250Z,57.78
2022-12-20T18:36:14.866Z,58.37
2022-12-20T18:39:17.662Z,59.62
2022-12-20T18:42:20.576Z,61.90
2022-12-20T18:45:23.365Z,67.29
2022-12-20T18:48:26.103Z,63.28
2022-12-20T18:51:31.800Z,54.53
2022-12-20T18:54:34.584Z,54.30
2022-12-20T18:57:37.385Z,57.59
2022-12-20T19:00:40.377Z,59.61
2022-12-20T19:03:43.558Z,61.40
2022-12-20T19:06:46.849Z,65.41
2022-12-20T19:09:49.616Z,66.88
2022-12-20T19:12:52.440Z,58.81
2022-12-20T19:16:05.983Z,54.51
2022-12-20T19:19:09.499Z,56.51
2022-12-20T19:22:12.567Z,59.39
2022-12-20T19:25:15.452Z,65.91
2022-12-20T19:28:18.196Z,62.51
2022-12-20T19:31:26.481Z,55.78
2022-12-20T19:34:29.347Z,54.16
2022-12-20T19:37:37.251Z,57.38
2022-12-20T19:40:41.616Z,59.88
2022-12-20T19:43:44.739Z,61.95
2022-12-20T19:46:47.734Z,68.69
2022-12-20T19:49:51.263Z,60.08
2022-12-20T19:52:54.131Z,54.46
2022-12-20T19:55:57.293Z,56.34
2022-12-20T19:59:02.527Z,59.88
2022-12-20T20:02:05.497Z,62.59
2022-12-20T20:05:14.666Z,66.62
2022-12-20T20:08:19.228Z,59.26
2022-12-20T20:11:21.966Z,57.28
2022-12-20T20:14:24.741Z,60.26
2022-12-20T20:17:27.440Z,63.21
2022-12-20T20:20:30.198Z,65.34
2022-12-20T20:23:33.294Z,61.17
2022-12-20T20:26:36.657Z,55.61
2022-12-20T20:29:39.540Z,57.06
2022-12-20T20:32:42.337Z,60.80
2022-12-20T20:35:54.505Z,65.84
2022-12-20T20:38:57.337Z,64.65
2022-12-20T20:42:00.487Z,55.52
2022-12-20T20:45:04.170Z,57.52
2022-12-20T20:48:07.450Z,61.70
2022-12-20T20:51:11.222Z,64.67
2022-12-20T20:54:14.019Z,58.77
2022-12-20T20:57:16.828Z,56.09
2022-12-20T21:00:19.920Z,59.20
2022-12-20T21:03:22.885Z,61.86
2022-12-20T21:06:40.048Z,62.80
2022-12-20T21:09:44.380Z,57.31
2022-12-20T21:12:47.623Z,57.72
2022-12-20T21:15:50.667Z,60.29
2022-12-20T21:18:56.296Z,62.10
2022-12-20T21:21:59.170Z,62.94
2022-12-20T21:25:02.153Z,58.54
2022-12-20T21:28:05.119Z,57.22
2022-12-20T21:31:11.571Z,59.80
2022-12-20T21:34:14.508Z,61.73
2022-12-20T21:37:17.894Z,63.52
2022-12-20T21:40:20.668Z,60.30
2022-12-20T21:43:23.408Z,54.97
2022-12-20T21:46:29.304Z,56.65
2022-12-20T21:49:32.178Z,60.03
2022-12-20T21:52:35.438Z,62.26
2022-12-20T21:55:38.255Z,61.55
2022-12-20T21:58:41.688Z,57.58
2022-12-20T22:01:46.133Z,53.43
2022-12-20T22:04:49.154Z,57.12
2022-12-20T22:07:51.915Z,59.95
2022-12-20T22:11:00.275Z,62.59
2022-12-20T22:14:03.156Z,60.36
2022-12-20T22:17:06.368Z,56.42
2022-12-20T22:20:09.294Z,58.45
2022-12-20T22:23:12.153Z,60.75
2022-12-20T22:26:18.564Z,62.66
2022-12-20T22:29:21.413Z,67.31
2022-12-20T22:32:24.192Z,66.03
2022-12-20T22:35:26.894Z,52.98
2022-12-20T22:38:29.958Z,50.03
2022-12-20T22:41:35.046Z,51.38
2022-12-20T22:44:37.966Z,53.63
2022-12-20T22:47:41.300Z,54.64
2022-12-20T22:50:44.095Z,55.49
2022-12-20T22:53:48.388Z,58.24
2022-12-20T22:56:51.260Z,58.86
2022-12-20T22:59:58.810Z,59.96
2022-12-20T23:03:01.769Z,59.34
2022-12-20T23:06:06.415Z,60.12
2022-12-20T23:09:09.415Z,65.72
2022-12-20T23:12:31.034Z,67.93
2022-12-20T23:15:42.895Z,53.32
2022-12-20T23:18:46.032Z,53.79
2022-12-20T23:22:07.568Z,57.09
2022-12-20T23:25:16.513Z,61.61
2022-12-20T23:28:19.285Z,66.45
2022-12-20T23:31:22.150Z,63.03
2022-12-20T23:34:24.944Z,55.88
2022-12-20T23:37:31.404Z,53.99
2022-12-20T23:40:34.172Z,58.39
2022-12-20T23:43:37.421Z,62.60
2022-12-20T23:46:40.295Z,66.15
2022-12-20T23:49:43.087Z,59.79
2022-12-20T23:52:45.907Z,56.51
2022-12-20T23:56:08.514Z,58.48
2022-12-20T23:59:11.323Z,62.02
